sensor_id;sensor_type;location;lat;lon;timestamp;temperature;humidity
48978;DHT22;34793;48.940;2.618;2023-02-04T00:02:19;16.60;81.60
48978;DHT22;34793;48.940;2.618;2023-02-04T00:04:45;16.70;81.60
48978;DHT22;34793;48.940;2.618;2023-02-04T00:07:10;16.60;81.40
48978;DHT22;34793;48.940;2.618;2023-02-04T00:09:36;16.70;81.50
48978;DHT22;34793;48.940;2.618;2023-02-04T00:12:01;16.70;81.70
48978;DHT22;34793;48.940;2.618;2023-02-04T00:14:27;16.70;81.60
48978;DHT22;34793;48.940;2.618;2023-02-04T00:16:52;16.50;81.80
48978;DHT22;34793;48.940;2.618;2023-02-04T00:19:18;16.70;81.50
48978;DHT22;34793;48.940;2.618;2023-02-04T00:21:43;16.80;81.30
48978;DHT22;34793;48.940;2.618;2023-02-04T00:24:09;16.60;81.60
48978;DHT22;34793;48.940;2.618;2023-02-04T00:26:34;16.60;81.90
48978;DHT22;34793;48.940;2.618;2023-02-04T00:28:59;16.60;81.70
48978;DHT22;34793;48.940;2.618;2023-02-04T00:31:25;16.80;81.20
48978;DHT22;34793;48.940;2.618;2023-02-04T00:33:50;16.70;81.40
48978;DHT22;34793;48.940;2.618;2023-02-04T00:36:16;16.90;81.10
48978;DHT22;34793;48.940;2.618;2023-02-04T00:38:41;16.80;81.10
48978;DHT22;34793;48.940;2.618;2023-02-04T00:41:07;16.90;81.00
48978;DHT22;34793;48.940;2.618;2023-02-04T00:43:32;16.60;81.60
48978;DHT22;34793;48.940;2.618;2023-02-04T00:45:58;16.80;81.30
48978;DHT22;34793;48.940;2.618;2023-02-04T00:48:23;16.70;81.30
48978;DHT22;34793;48.940;2.618;2023-02-04T00:50:49;16.50;82.00
48978;DHT22;34793;48.940;2.618;2023-02-04T00:53:14;16.70;81.60
48978;DHT22;34793;48.940;2.618;2023-02-04T00:55:40;16.70;81.80
48978;DHT22;34793;48.940;2.618;2023-02-04T00:58:05;16.80;81.60
48978;DHT22;34793;48.940;2.618;2023-02-04T01:00:31;16.70;82.20
48978;DHT22;34793;48.940;2.618;2023-02-04T01:02:56;16.80;82.00
48978;DHT22;34793;48.940;2.618;2023-02-04T01:05:22;16.60;81.80
48978;DHT22;34793;48.940;2.618;2023-02-04T01:07:47;16.70;82.00
48978;DHT22;34793;48.940;2.618;2023-02-04T01:10:13;16.70;81.50
48978;DHT22;34793;48.940;2.618;2023-02-04T01:12:40;16.70;81.40
48978;DHT22;34793;48.940;2.618;2023-02-04T01:15:05;16.60;81.70
48978;DHT22;34793;48.940;2.618;2023-02-04T01:17:31;16.80;81.50
48978;DHT22;34793;48.940;2.618;2023-02-04T01:19:56;16.60;81.60
48978;DHT22;34793;48.940;2.618;2023-02-04T01:22:22;16.70;81.90
48978;DHT22;34793;48.940;2.618;2023-02-04T01:24:47;16.80;81.80
48978;DHT22;34793;48.940;2.618;2023-02-04T01:27:14;16.70;81.50
48978;DHT22;34793;48.940;2.618;2023-02-04T01:29:40;16.70;81.80
48978;DHT22;34793;48.940;2.618;2023-02-04T01:32:05;16.70;81.80
48978;DHT22;34793;48.940;2.618;2023-02-04T01:34:31;16.70;81.60
48978;DHT22;34793;48.940;2.618;2023-02-04T01:36:56;16.70;81.90
48978;DHT22;34793;48.940;2.618;2023-02-04T01:39:22;16.60;82.10
48978;DHT22;34793;48.940;2.618;2023-02-04T01:41:47;16.40;82.50
48978;DHT22;34793;48.940;2.618;2023-02-04T01:44:13;16.40;82.80
48978;DHT22;34793;48.940;2.618;2023-02-04T01:46:38;16.30;83.00
48978;DHT22;34793;48.940;2.618;2023-02-04T01:49:04;16.30;83.10
48978;DHT22;34793;48.940;2.618;2023-02-04T01:51:30;16.40;82.70
48978;DHT22;34793;48.940;2.618;2023-02-04T01:53:58;16.00;84.50
48978;DHT22;34793;48.940;2.618;2023-02-04T01:56:24;15.60;85.20
48978;DHT22;34793;48.940;2.618;2023-02-04T01:58:53;15.70;85.50
48978;DHT22;34793;48.940;2.618;2023-02-04T02:01:38;15.80;85.20
48978;DHT22;34793;48.940;2.618;2023-02-04T02:04:08;15.80;85.30
48978;DHT22;34793;48.940;2.618;2023-02-04T02:06:34;15.90;84.60
48978;DHT22;34793;48.940;2.618;2023-02-04T02:09:00;15.90;85.10
48978;DHT22;34793;48.940;2.618;2023-02-04T02:11:26;15.90;85.10
48978;DHT22;34793;48.940;2.618;2023-02-04T02:13:52;15.70;85.40
48978;DHT22;34793;48.940;2.618;2023-02-04T02:16:18;15.70;85.50
48978;DHT22;34793;48.940;2.618;2023-02-04T02:18:43;15.80;85.30
48978;DHT22;34793;48.940;2.618;2023-02-04T02:21:09;15.70;85.40
48978;DHT22;34793;48.940;2.618;2023-02-04T02:23:49;15.90;85.20
48978;DHT22;34793;48.940;2.618;2023-02-04T02:26:16;16.00;85.00
48978;DHT22;34793;48.940;2.618;2023-02-04T02:28:42;16.20;84.40
48978;DHT22;34793;48.940;2.618;2023-02-04T02:31:08;16.30;84.80
48978;DHT22;34793;48.940;2.618;2023-02-04T02:33:33;15.90;84.80
48978;DHT22;34793;48.940;2.618;2023-02-04T02:35:59;16.20;84.60
48978;DHT22;34793;48.940;2.618;2023-02-04T02:38:25;16.20;84.20
48978;DHT22;34793;48.940;2.618;2023-02-04T02:40:50;16.20;84.40
48978;DHT22;34793;48.940;2.618;2023-02-04T02:43:18;16.10;84.50
48978;DHT22;34793;48.940;2.618;2023-02-04T02:45:45;16.30;84.40
48978;DHT22;34793;48.940;2.618;2023-02-04T02:48:11;16.20;84.20
48978;DHT22;34793;48.940;2.618;2023-02-04T02:50:37;16.10;84.50
48978;DHT22;34793;48.940;2.618;2023-02-04T02:53:02;16.40;84.30
48978;DHT22;34793;48.940;2.618;2023-02-04T02:55:28;16.10;85.20
48978;DHT22;34793;48.940;2.618;2023-02-04T02:57:54;15.90;85.40
48978;DHT22;34793;48.940;2.618;2023-02-04T03:00:24;15.80;85.40
48978;DHT22;34793;48.940;2.618;2023-02-04T03:02:53;15.80;85.30
48978;DHT22;34793;48.940;2.618;2023-02-04T03:05:19;16.00;85.10
48978;DHT22;34793;48.940;2.618;2023-02-04T03:07:44;15.80;85.20
48978;DHT22;34793;48.940;2.618;2023-02-04T03:10:10;16.00;85.20
48978;DHT22;34793;48.940;2.618;2023-02-04T03:12:35;16.30;84.50
48978;DHT22;34793;48.940;2.618;2023-02-04T03:15:02;16.20;84.40
48978;DHT22;34793;48.940;2.618;2023-02-04T03:17:28;16.40;84.00
48978;DHT22;34793;48.940;2.618;2023-02-04T03:20:02;16.40;83.70
48978;DHT22;34793;48.940;2.618;2023-02-04T03:22:28;16.10;84.70
48978;DHT22;34793;48.940;2.618;2023-02-04T03:24:54;16.30;85.20
48978;DHT22;34793;48.940;2.618;2023-02-04T03:27:22;16.40;84.30
48978;DHT22;34793;48.940;2.618;2023-02-04T03:29:48;16.60;83.70
48978;DHT22;34793;48.940;2.618;2023-02-04T03:32:14;16.80;83.20
48978;DHT22;34793;48.940;2.618;2023-02-04T03:34:39;17.10;82.50
48978;DHT22;34793;48.940;2.618;2023-02-04T03:37:05;17.10;82.40
48978;DHT22;34793;48.940;2.618;2023-02-04T03:39:30;17.00;82.10
48978;DHT22;34793;48.940;2.618;2023-02-04T03:41:56;16.60;83.10
48978;DHT22;34793;48.940;2.618;2023-02-04T03:44:21;16.40;83.80
48978;DHT22;34793;48.940;2.618;2023-02-04T03:46:54;16.40;84.00
48978;DHT22;34793;48.940;2.618;2023-02-04T03:49:23;16.30;84.10
48978;DHT22;34793;48.940;2.618;2023-02-04T03:51:49;16.50;83.70
48978;DHT22;34793;48.940;2.618;2023-02-04T03:54:14;16.80;83.40
48978;DHT22;34793;48.940;2.618;2023-02-04T03:56:40;16.70;83.00
48978;DHT22;34793;48.940;2.618;2023-02-04T03:59:05;16.80;82.70
48978;DHT22;34793;48.940;2.618;2023-02-04T04:01:31;16.70;83.10
48978;DHT22;34793;48.940;2.618;2023-02-04T04:03:56;16.70;83.10
48978;DHT22;34793;48.940;2.618;2023-02-04T04:06:22;16.90;82.80
48978;DHT22;34793;48.940;2.618;2023-02-04T04:08:47;16.60;83.20
48978;DHT22;34793;48.940;2.618;2023-02-04T04:11:13;16.60;83.10
48978;DHT22;34793;48.940;2.618;2023-02-04T04:13:38;16.80;83.10
48978;DHT22;34793;48.940;2.618;2023-02-04T04:16:04;16.90;82.60
48978;DHT22;34793;48.940;2.618;2023-02-04T04:18:30;16.80;82.50
48978;DHT22;34793;48.940;2.618;2023-02-04T04:20:57;16.80;82.70
48978;DHT22;34793;48.940;2.618;2023-02-04T04:23:22;16.70;83.00
48978;DHT22;34793;48.940;2.618;2023-02-04T04:25:48;16.60;82.80
48978;DHT22;34793;48.940;2.618;2023-02-04T04:28:13;16.80;82.80
48978;DHT22;34793;48.940;2.618;2023-02-04T04:30:39;16.70;83.10
48978;DHT22;34793;48.940;2.618;2023-02-04T04:33:04;16.80;83.10
48978;DHT22;34793;48.940;2.618;2023-02-04T04:35:30;16.80;83.20
48978;DHT22;34793;48.940;2.618;2023-02-04T04:37:55;16.90;83.10
48978;DHT22;34793;48.940;2.618;2023-02-04T04:40:21;16.80;83.20
48978;DHT22;34793;48.940;2.618;2023-02-04T04:42:46;16.70;83.40
48978;DHT22;34793;48.940;2.618;2023-02-04T04:45:12;16.70;83.10
48978;DHT22;34793;48.940;2.618;2023-02-04T04:47:38;16.70;83.10
48978;DHT22;34793;48.940;2.618;2023-02-04T04:50:04;16.60;83.30
48978;DHT22;34793;48.940;2.618;2023-02-04T04:52:29;16.40;83.40
48978;DHT22;34793;48.940;2.618;2023-02-04T04:54:55;16.40;83.80
48978;DHT22;34793;48.940;2.618;2023-02-04T04:57:20;16.40;84.10
48978;DHT22;34793;48.940;2.618;2023-02-04T04:59:46;16.50;83.50
48978;DHT22;34793;48.940;2.618;2023-02-04T05:02:11;16.30;84.20
48978;DHT22;34793;48.940;2.618;2023-02-04T05:04:37;16.20;84.90
48978;DHT22;34793;48.940;2.618;2023-02-04T05:07:02;16.20;85.00
48978;DHT22;34793;48.940;2.618;2023-02-04T05:09:28;16.20;84.40
48978;DHT22;34793;48.940;2.618;2023-02-04T05:11:54;15.90;85.10
48978;DHT22;34793;48.940;2.618;2023-02-04T05:14:19;16.10;85.10
48978;DHT22;34793;48.940;2.618;2023-02-04T05:16:45;16.20;84.30
48978;DHT22;34793;48.940;2.618;2023-02-04T05:19:10;16.30;85.00
48978;DHT22;34793;48.940;2.618;2023-02-04T05:21:38;16.30;84.60
48978;DHT22;34793;48.940;2.618;2023-02-04T05:24:03;16.10;85.40
48978;DHT22;34793;48.940;2.618;2023-02-04T05:26:31;16.10;85.10
48978;DHT22;34793;48.940;2.618;2023-02-04T05:28:56;16.30;84.50
48978;DHT22;34793;48.940;2.618;2023-02-04T05:31:24;16.30;84.40
48978;DHT22;34793;48.940;2.618;2023-02-04T05:33:50;16.40;84.00
48978;DHT22;34793;48.940;2.618;2023-02-04T05:36:15;16.50;83.60
48978;DHT22;34793;48.940;2.618;2023-02-04T05:38:42;16.60;83.60
48978;DHT22;34793;48.940;2.618;2023-02-04T05:41:07;16.60;83.10
48978;DHT22;34793;48.940;2.618;2023-02-04T05:43:33;16.50;83.30
48978;DHT22;34793;48.940;2.618;2023-02-04T05:45:59;16.30;83.80
48978;DHT22;34793;48.940;2.618;2023-02-04T05:48:25;16.40;83.70
48978;DHT22;34793;48.940;2.618;2023-02-04T05:50:50;16.40;83.60
48978;DHT22;34793;48.940;2.618;2023-02-04T05:53:16;16.70;83.10
48978;DHT22;34793;48.940;2.618;2023-02-04T05:55:41;16.70;82.60
48978;DHT22;34793;48.940;2.618;2023-02-04T05:58:07;16.60;83.20
48978;DHT22;34793;48.940;2.618;2023-02-04T06:00:32;16.60;83.00
48978;DHT22;34793;48.940;2.618;2023-02-04T06:02:57;16.50;83.00
48978;DHT22;34793;48.940;2.618;2023-02-04T06:05:23;16.50;83.40
48978;DHT22;34793;48.940;2.618;2023-02-04T06:07:49;16.50;83.00
48978;DHT22;34793;48.940;2.618;2023-02-04T06:10:14;16.50;83.00
48978;DHT22;34793;48.940;2.618;2023-02-04T06:12:40;16.60;83.10
48978;DHT22;34793;48.940;2.618;2023-02-04T06:15:05;16.60;82.90
48978;DHT22;34793;48.940;2.618;2023-02-04T06:17:31;16.60;83.20
48978;DHT22;34793;48.940;2.618;2023-02-04T06:19:57;16.50;83.10
48978;DHT22;34793;48.940;2.618;2023-02-04T06:22:22;16.40;83.60
48978;DHT22;34793;48.940;2.618;2023-02-04T06:24:49;16.60;83.10
48978;DHT22;34793;48.940;2.618;2023-02-04T06:27:14;16.80;82.60
48978;DHT22;34793;48.940;2.618;2023-02-04T06:29:51;16.70;82.50
48978;DHT22;34793;48.940;2.618;2023-02-04T06:32:17;16.60;82.60
48978;DHT22;34793;48.940;2.618;2023-02-04T06:34:42;16.70;82.80
48978;DHT22;34793;48.940;2.618;2023-02-04T06:37:08;16.70;82.70
48978;DHT22;34793;48.940;2.618;2023-02-04T06:39:33;16.80;82.10
48978;DHT22;34793;48.940;2.618;2023-02-04T06:42:00;17.00;82.00
48978;DHT22;34793;48.940;2.618;2023-02-04T06:44:25;16.90;81.80
48978;DHT22;34793;48.940;2.618;2023-02-04T06:46:51;17.00;81.80
48978;DHT22;34793;48.940;2.618;2023-02-04T06:49:16;17.00;81.30
48978;DHT22;34793;48.940;2.618;2023-02-04T06:51:42;16.80;82.10
48978;DHT22;34793;48.940;2.618;2023-02-04T06:54:07;16.80;82.10
48978;DHT22;34793;48.940;2.618;2023-02-04T06:56:33;16.80;81.80
48978;DHT22;34793;48.940;2.618;2023-02-04T06:58:58;17.00;81.60
48978;DHT22;34793;48.940;2.618;2023-02-04T07:01:23;17.10;81.50
48978;DHT22;34793;48.940;2.618;2023-02-04T07:03:49;17.20;81.00
48978;DHT22;34793;48.940;2.618;2023-02-04T07:06:15;17.20;81.70
48978;DHT22;34793;48.940;2.618;2023-02-04T07:08:40;17.00;80.90
48978;DHT22;34793;48.940;2.618;2023-02-04T07:11:06;16.90;81.60
48978;DHT22;34793;48.940;2.618;2023-02-04T07:13:31;17.20;81.10
48978;DHT22;34793;48.940;2.618;2023-02-04T07:15:57;17.10;81.30
48978;DHT22;34793;48.940;2.618;2023-02-04T07:18:22;17.00;81.00
48978;DHT22;34793;48.940;2.618;2023-02-04T07:20:48;16.80;81.40
48978;DHT22;34793;48.940;2.618;2023-02-04T07:23:13;16.80;81.70
48978;DHT22;34793;48.940;2.618;2023-02-04T07:25:39;16.80;81.60
48978;DHT22;34793;48.940;2.618;2023-02-04T07:28:04;16.90;81.50
48978;DHT22;34793;48.940;2.618;2023-02-04T07:30:30;17.10;80.90
48978;DHT22;34793;48.940;2.618;2023-02-04T07:32:56;17.00;80.80
48978;DHT22;34793;48.940;2.618;2023-02-04T07:35:21;17.10;81.40
48978;DHT22;34793;48.940;2.618;2023-02-04T07:37:48;16.90;81.60
48978;DHT22;34793;48.940;2.618;2023-02-04T07:40:14;17.10;81.40
48978;DHT22;34793;48.940;2.618;2023-02-04T07:42:39;17.20;81.20
48978;DHT22;34793;48.940;2.618;2023-02-04T07:45:05;17.10;81.00
48978;DHT22;34793;48.940;2.618;2023-02-04T07:47:30;16.80;82.40
48978;DHT22;34793;48.940;2.618;2023-02-04T07:49:56;16.90;82.50
48978;DHT22;34793;48.940;2.618;2023-02-04T07:52:22;16.80;82.30
48978;DHT22;34793;48.940;2.618;2023-02-04T07:54:48;16.70;83.40
48978;DHT22;34793;48.940;2.618;2023-02-04T07:57:13;16.60;82.90
48978;DHT22;34793;48.940;2.618;2023-02-04T07:59:39;16.60;83.60
48978;DHT22;34793;48.940;2.618;2023-02-04T08:02:04;16.50;83.80
48978;DHT22;34793;48.940;2.618;2023-02-04T08:04:30;16.50;84.20
48978;DHT22;34793;48.940;2.618;2023-02-04T08:06:55;16.30;84.90
48978;DHT22;34793;48.940;2.618;2023-02-04T08:09:21;16.20;85.60
48978;DHT22;34793;48.940;2.618;2023-02-04T08:11:46;16.40;85.30
48978;DHT22;34793;48.940;2.618;2023-02-04T08:14:12;16.20;85.40
48978;DHT22;34793;48.940;2.618;2023-02-04T08:16:37;16.00;86.00
48978;DHT22;34793;48.940;2.618;2023-02-04T08:19:03;15.90;86.40
48978;DHT22;34793;48.940;2.618;2023-02-04T08:21:28;16.10;85.90
48978;DHT22;34793;48.940;2.618;2023-02-04T08:23:54;16.30;86.00
48978;DHT22;34793;48.940;2.618;2023-02-04T08:26:19;16.40;85.10
48978;DHT22;34793;48.940;2.618;2023-02-04T08:28:45;16.50;84.90
48978;DHT22;34793;48.940;2.618;2023-02-04T08:31:10;16.60;84.70
48978;DHT22;34793;48.940;2.618;2023-02-04T08:33:36;16.60;85.40
48978;DHT22;34793;48.940;2.618;2023-02-04T08:36:03;16.70;85.00
48978;DHT22;34793;48.940;2.618;2023-02-04T08:38:29;16.80;84.00
48978;DHT22;34793;48.940;2.618;2023-02-04T08:40:54;16.90;84.20
48978;DHT22;34793;48.940;2.618;2023-02-04T08:43:20;17.00;83.60
48978;DHT22;34793;48.940;2.618;2023-02-04T08:45:45;16.80;84.30
48978;DHT22;34793;48.940;2.618;2023-02-04T08:48:11;16.70;84.40
48978;DHT22;34793;48.940;2.618;2023-02-04T08:50:36;16.60;84.80
48978;DHT22;34793;48.940;2.618;2023-02-04T08:53:02;16.50;85.20
48978;DHT22;34793;48.940;2.618;2023-02-04T08:55:27;16.60;84.90
48978;DHT22;34793;48.940;2.618;2023-02-04T08:57:53;16.50;85.20
48978;DHT22;34793;48.940;2.618;2023-02-04T09:00:18;16.50;85.30
48978;DHT22;34793;48.940;2.618;2023-02-04T09:02:44;16.40;85.60
48978;DHT22;34793;48.940;2.618;2023-02-04T09:05:09;16.20;86.10
48978;DHT22;34793;48.940;2.618;2023-02-04T09:07:35;16.20;86.30
48978;DHT22;34793;48.940;2.618;2023-02-04T09:10:00;15.80;87.10
48978;DHT22;34793;48.940;2.618;2023-02-04T09:12:26;15.80;87.60
48978;DHT22;34793;48.940;2.618;2023-02-04T09:14:51;16.00;86.80
48978;DHT22;34793;48.940;2.618;2023-02-04T09:17:17;16.20;86.50
48978;DHT22;34793;48.940;2.618;2023-02-04T09:19:43;16.30;86.10
48978;DHT22;34793;48.940;2.618;2023-02-04T09:22:08;16.40;85.70
48978;DHT22;34793;48.940;2.618;2023-02-04T09:24:34;16.40;85.60
48978;DHT22;34793;48.940;2.618;2023-02-04T09:26:59;16.50;85.50
48978;DHT22;34793;48.940;2.618;2023-02-04T09:29:25;16.60;85.60
48978;DHT22;34793;48.940;2.618;2023-02-04T09:31:50;16.60;85.30
48978;DHT22;34793;48.940;2.618;2023-02-04T09:34:16;16.80;85.10
48978;DHT22;34793;48.940;2.618;2023-02-04T09:36:41;16.70;84.80
48978;DHT22;34793;48.940;2.618;2023-02-04T09:39:07;16.60;85.40
48978;DHT22;34793;48.940;2.618;2023-02-04T09:41:34;16.50;86.10
48978;DHT22;34793;48.940;2.618;2023-02-04T09:44:00;16.50;85.80
48978;DHT22;34793;48.940;2.618;2023-02-04T09:46:26;16.70;85.70
48978;DHT22;34793;48.940;2.618;2023-02-04T09:48:55;16.50;86.00
48978;DHT22;34793;48.940;2.618;2023-02-04T09:51:23;16.70;85.30
48978;DHT22;34793;48.940;2.618;2023-02-04T09:53:49;16.80;85.40
48978;DHT22;34793;48.940;2.618;2023-02-04T09:56:18;16.40;86.20
48978;DHT22;34793;48.940;2.618;2023-02-04T09:58:43;16.40;85.80
48978;DHT22;34793;48.940;2.618;2023-02-04T10:01:11;16.60;85.70
48978;DHT22;34793;48.940;2.618;2023-02-04T10:03:38;16.40;85.60
48978;DHT22;34793;48.940;2.618;2023-02-04T10:06:11;16.20;87.20
48978;DHT22;34793;48.940;2.618;2023-02-04T10:08:36;16.20;86.90
48978;DHT22;34793;48.940;2.618;2023-02-04T10:11:02;16.10;86.60
48978;DHT22;34793;48.940;2.618;2023-02-04T10:13:32;16.10;86.80
48978;DHT22;34793;48.940;2.618;2023-02-04T10:15:59;16.20;86.80
48978;DHT22;34793;48.940;2.618;2023-02-04T10:18:26;16.40;87.00
48978;DHT22;34793;48.940;2.618;2023-02-04T10:20:54;16.60;86.10
48978;DHT22;34793;48.940;2.618;2023-02-04T10:23:21;16.40;86.50
48978;DHT22;34793;48.940;2.618;2023-02-04T10:25:46;16.50;86.40
48978;DHT22;34793;48.940;2.618;2023-02-04T10:28:34;16.60;85.70
48978;DHT22;34793;48.940;2.618;2023-02-04T10:30:59;16.60;86.10
48978;DHT22;34793;48.940;2.618;2023-02-04T10:33:25;16.80;85.50
48978;DHT22;34793;48.940;2.618;2023-02-04T10:35:54;16.70;86.10
48978;DHT22;34793;48.940;2.618;2023-02-04T10:38:20;16.60;86.40
48978;DHT22;34793;48.940;2.618;2023-02-04T10:40:46;16.50;86.80
48978;DHT22;34793;48.940;2.618;2023-02-04T10:43:15;16.40;87.40
48978;DHT22;34793;48.940;2.618;2023-02-04T10:45:45;16.30;87.60
48978;DHT22;34793;48.940;2.618;2023-02-04T10:48:15;16.30;87.20
48978;DHT22;34793;48.940;2.618;2023-02-04T10:50:40;16.60;87.00
48978;DHT22;34793;48.940;2.618;2023-02-04T10:53:07;16.40;86.80
48978;DHT22;34793;48.940;2.618;2023-02-04T10:55:53;16.30;86.80
48978;DHT22;34793;48.940;2.618;2023-02-04T10:58:25;16.30;87.30
48978;DHT22;34793;48.940;2.618;2023-02-04T11:00:52;16.50;86.90
48978;DHT22;34793;48.940;2.618;2023-02-04T11:05:46;16.30;86.90
48978;DHT22;34793;48.940;2.618;2023-02-04T11:08:17;16.30;86.70
48978;DHT22;34793;48.940;2.618;2023-02-04T11:10:43;16.30;87.30
48978;DHT22;34793;48.940;2.618;2023-02-04T11:13:19;16.30;86.90
48978;DHT22;34793;48.940;2.618;2023-02-04T11:15:46;16.30;87.10
48978;DHT22;34793;48.940;2.618;2023-02-04T11:18:24;16.10;86.90
48978;DHT22;34793;48.940;2.618;2023-02-04T11:20:53;16.30;87.00
48978;DHT22;34793;48.940;2.618;2023-02-04T11:26:01;16.60;86.60
48978;DHT22;34793;48.940;2.618;2023-02-04T11:28:27;16.70;85.60
48978;DHT22;34793;48.940;2.618;2023-02-04T11:30:59;16.80;85.60
48978;DHT22;34793;48.940;2.618;2023-02-04T11:33:25;16.70;85.00
48978;DHT22;34793;48.940;2.618;2023-02-04T11:36:01;16.60;85.60
48978;DHT22;34793;48.940;2.618;2023-02-04T11:38:29;16.40;86.50
48978;DHT22;34793;48.940;2.618;2023-02-04T11:40:55;16.50;86.40
48978;DHT22;34793;48.940;2.618;2023-02-04T11:43:21;16.70;86.10
48978;DHT22;34793;48.940;2.618;2023-02-04T11:45:47;16.70;86.00
48978;DHT22;34793;48.940;2.618;2023-02-04T11:48:16;16.70;85.30
48978;DHT22;34793;48.940;2.618;2023-02-04T11:50:42;16.90;85.00
48978;DHT22;34793;48.940;2.618;2023-02-04T11:53:18;17.10;84.80
48978;DHT22;34793;48.940;2.618;2023-02-04T11:55:45;17.10;84.60
48978;DHT22;34793;48.940;2.618;2023-02-04T11:58:13;17.10;84.80
48978;DHT22;34793;48.940;2.618;2023-02-04T12:00:38;17.00;84.70
48978;DHT22;34793;48.940;2.618;2023-02-04T12:06:07;17.10;85.20
48978;DHT22;34793;48.940;2.618;2023-02-04T12:08:33;17.20;85.20
48978;DHT22;34793;48.940;2.618;2023-02-04T12:13:26;17.20;84.70
48978;DHT22;34793;48.940;2.618;2023-02-04T12:15:53;17.40;84.70
48978;DHT22;34793;48.940;2.618;2023-02-04T12:18:19;17.30;84.30
48978;DHT22;34793;48.940;2.618;2023-02-04T12:20:45;17.50;84.20
48978;DHT22;34793;48.940;2.618;2023-02-04T12:23:10;17.40;84.20
48978;DHT22;34793;48.940;2.618;2023-02-04T12:25:36;17.50;84.20
48978;DHT22;34793;48.940;2.618;2023-02-04T12:28:01;17.10;85.00
48978;DHT22;34793;48.940;2.618;2023-02-04T12:30:27;17.00;85.20
48978;DHT22;34793;48.940;2.618;2023-02-04T12:32:52;16.60;86.80
48978;DHT22;34793;48.940;2.618;2023-02-04T12:35:27;16.60;86.60
48978;DHT22;34793;48.940;2.618;2023-02-04T12:37:52;16.90;86.00
48978;DHT22;34793;48.940;2.618;2023-02-04T12:40:19;16.60;87.20
48978;DHT22;34793;48.940;2.618;2023-02-04T12:42:44;16.50;87.60
48978;DHT22;34793;48.940;2.618;2023-02-04T12:45:10;16.70;87.30
48978;DHT22;34793;48.940;2.618;2023-02-04T12:47:36;16.80;86.40
48978;DHT22;34793;48.940;2.618;2023-02-04T12:50:02;16.70;86.50
48978;DHT22;34793;48.940;2.618;2023-02-04T12:52:28;16.90;85.90
48978;DHT22;34793;48.940;2.618;2023-02-04T12:54:53;16.80;86.60
48978;DHT22;34793;48.940;2.618;2023-02-04T12:57:19;17.00;86.20
48978;DHT22;34793;48.940;2.618;2023-02-04T13:02:35;17.40;84.50
48978;DHT22;34793;48.940;2.618;2023-02-04T13:05:00;17.70;84.10
48978;DHT22;34793;48.940;2.618;2023-02-04T13:07:26;17.60;83.40
48978;DHT22;34793;48.940;2.618;2023-02-04T13:09:51;17.70;82.60
48978;DHT22;34793;48.940;2.618;2023-02-04T13:12:17;17.80;82.50
48978;DHT22;34793;48.940;2.618;2023-02-04T13:14:42;17.60;83.10
48978;DHT22;34793;48.940;2.618;2023-02-04T13:17:08;17.30;84.10
48978;DHT22;34793;48.940;2.618;2023-02-04T13:19:34;17.20;84.60
48978;DHT22;34793;48.940;2.618;2023-02-04T13:22:00;16.90;85.70
48978;DHT22;34793;48.940;2.618;2023-02-04T13:24:26;16.90;85.40
48978;DHT22;34793;48.940;2.618;2023-02-04T13:26:51;16.90;86.10
48978;DHT22;34793;48.940;2.618;2023-02-04T13:29:17;16.90;86.10
48978;DHT22;34793;48.940;2.618;2023-02-04T13:31:43;17.00;85.80
48978;DHT22;34793;48.940;2.618;2023-02-04T13:34:08;17.30;85.70
48978;DHT22;34793;48.940;2.618;2023-02-04T13:36:34;17.40;85.40
48978;DHT22;34793;48.940;2.618;2023-02-04T13:38:59;17.50;85.60
48978;DHT22;34793;48.940;2.618;2023-02-04T13:41:25;17.40;84.60
48978;DHT22;34793;48.940;2.618;2023-02-04T13:43:51;17.20;85.30
48978;DHT22;34793;48.940;2.618;2023-02-04T13:46:16;17.30;85.20
48978;DHT22;34793;48.940;2.618;2023-02-04T13:48:42;17.50;85.10
48978;DHT22;34793;48.940;2.618;2023-02-04T13:51:07;17.60;84.80
48978;DHT22;34793;48.940;2.618;2023-02-04T13:53:33;17.60;84.30
48978;DHT22;34793;48.940;2.618;2023-02-04T13:55:58;17.50;84.20
48978;DHT22;34793;48.940;2.618;2023-02-04T13:58:24;17.40;84.50
48978;DHT22;34793;48.940;2.618;2023-02-04T14:00:49;17.40;84.60
48978;DHT22;34793;48.940;2.618;2023-02-04T14:03:15;17.50;84.40
48978;DHT22;34793;48.940;2.618;2023-02-04T14:05:40;17.60;84.00
48978;DHT22;34793;48.940;2.618;2023-02-04T14:08:06;17.90;83.70
48978;DHT22;34793;48.940;2.618;2023-02-04T14:10:31;17.70;83.60
48978;DHT22;34793;48.940;2.618;2023-02-04T14:12:57;17.70;83.60
48978;DHT22;34793;48.940;2.618;2023-02-04T14:15:23;17.80;83.90
48978;DHT22;34793;48.940;2.618;2023-02-04T14:17:48;17.80;83.10
48978;DHT22;34793;48.940;2.618;2023-02-04T14:20:14;17.90;83.60
48978;DHT22;34793;48.940;2.618;2023-02-04T14:22:40;17.80;83.70
48978;DHT22;34793;48.940;2.618;2023-02-04T14:25:05;17.80;84.20
48978;DHT22;34793;48.940;2.618;2023-02-04T14:27:31;17.70;84.10
48978;DHT22;34793;48.940;2.618;2023-02-04T14:32:55;18.00;82.90
48978;DHT22;34793;48.940;2.618;2023-02-04T14:35:21;18.10;82.70
48978;DHT22;34793;48.940;2.618;2023-02-04T14:37:47;18.00;82.90
48978;DHT22;34793;48.940;2.618;2023-02-04T14:40:12;18.10;82.90
48978;DHT22;34793;48.940;2.618;2023-02-04T14:42:39;17.90;83.40
48978;DHT22;34793;48.940;2.618;2023-02-04T14:45:05;17.50;84.60
48978;DHT22;34793;48.940;2.618;2023-02-04T14:47:33;17.40;84.60
48978;DHT22;34793;48.940;2.618;2023-02-04T14:49:58;17.30;84.50
48978;DHT22;34793;48.940;2.618;2023-02-04T14:52:24;17.40;85.20
48978;DHT22;34793;48.940;2.618;2023-02-04T14:54:49;17.40;84.10
48978;DHT22;34793;48.940;2.618;2023-02-04T14:57:14;17.40;84.30
48978;DHT22;34793;48.940;2.618;2023-02-04T14:59:40;17.50;84.50
48978;DHT22;34793;48.940;2.618;2023-02-04T15:02:06;17.40;84.20
48978;DHT22;34793;48.940;2.618;2023-02-04T15:04:31;17.30;84.20
48978;DHT22;34793;48.940;2.618;2023-02-04T15:06:57;17.30;84.20
48978;DHT22;34793;48.940;2.618;2023-02-04T15:09:23;17.40;84.30
48978;DHT22;34793;48.940;2.618;2023-02-04T15:11:49;17.70;83.50
48978;DHT22;34793;48.940;2.618;2023-02-04T15:14:15;17.90;83.00
48978;DHT22;34793;48.940;2.618;2023-02-04T15:16:40;17.70;82.40
48978;DHT22;34793;48.940;2.618;2023-02-04T15:19:07;17.50;82.70
48978;DHT22;34793;48.940;2.618;2023-02-04T15:21:33;17.40;83.80
48978;DHT22;34793;48.940;2.618;2023-02-04T15:23:58;17.30;83.90
48978;DHT22;34793;48.940;2.618;2023-02-04T15:26:24;17.30;84.10
48978;DHT22;34793;48.940;2.618;2023-02-04T15:28:49;17.20;84.20
48978;DHT22;34793;48.940;2.618;2023-02-04T15:31:15;17.50;83.80
48978;DHT22;34793;48.940;2.618;2023-02-04T15:33:40;17.30;84.60
48978;DHT22;34793;48.940;2.618;2023-02-04T15:36:06;17.20;85.70
48978;DHT22;34793;48.940;2.618;2023-02-04T15:38:32;17.30;84.70
48978;DHT22;34793;48.940;2.618;2023-02-04T15:40:57;17.60;84.30